createdAt,value
2022-08-05T00:02:07.296Z,25.90
2022-08-05T00:04:34.348Z,25.80
2022-08-05T00:07:00.972Z,25.70
2022-08-05T00:09:47.533Z,25.70
2022-08-05T00:12:14.556Z,25.50
2022-08-05T00:14:41.130Z,25.60
2022-08-05T00:17:19.331Z,25.50
2022-08-05T00:20:02.043Z,25.50
2022-08-05T00:22:29.786Z,25.40
2022-08-05T00:24:57.578Z,25.40
2022-08-05T00:27:36.198Z,25.30
2022-08-05T00:30:04.694Z,25.30
2022-08-05T00:32:31.372Z,25.20
2022-08-05T00:35:06.073Z,25.10
2022-08-05T00:37:51.079Z,24.90
2022-08-05T00:40:26.801Z,24.10
2022-08-05T00:42:54.963Z,23.50
2022-08-05T00:45:38.951Z,23.00
2022-08-05T00:48:09.340Z,22.70
2022-08-05T00:50:37.462Z,22.50
2022-08-05T00:53:09.899Z,22.30
2022-08-05T00:55:51.120Z,22.20
2022-08-05T00:58:19.160Z,22.20
2022-08-05T01:00:47.677Z,22.30
2022-08-05T01:03:22.530Z,22.30
2022-08-05T01:05:51.263Z,22.30
2022-08-05T01:08:40.885Z,22.20
2022-08-05T01:11:22.110Z,22.00
2022-08-05T01:14:15.552Z,21.80
2022-08-05T01:17:03.015Z,21.70
2022-08-05T01:19:57.219Z,21.70
2022-08-05T01:22:59.386Z,21.60
2022-08-05T01:26:02.720Z,21.50
2022-08-05T01:28:43.266Z,21.50
2022-08-05T01:31:19.569Z,21.40
2022-08-05T01:33:53.812Z,21.40
2022-08-05T01:36:28.153Z,21.40
2022-08-05T01:38:56.296Z,21.40
2022-08-05T01:41:25.819Z,21.40
2022-08-05T01:43:53.619Z,21.50
2022-08-05T01:46:42.511Z,21.40
2022-08-05T01:49:23.439Z,21.40
2022-08-05T01:51:58.842Z,21.30
2022-08-05T01:54:31.929Z,21.30
2022-08-05T01:58:29.164Z,21.40
2022-08-05T01:59:49.450Z,21.30
2022-08-05T02:02:19.949Z,21.30
2022-08-05T02:04:54.450Z,21.30
2022-08-05T02:07:22.874Z,21.20
2022-08-05T02:09:50.959Z,21.20
2022-08-05T02:12:34.399Z,21.20
2022-08-05T02:15:19.778Z,21.20
2022-08-05T02:18:33.085Z,21.30
2022-08-05T02:21:14.813Z,21.50
2022-08-05T02:23:46.180Z,21.60
2022-08-05T02:26:17.164Z,21.60
2022-08-05T02:28:46.339Z,21.70
2022-08-05T02:31:23.416Z,21.60
2022-08-05T02:34:01.244Z,21.70
2022-08-05T02:36:31.317Z,21.70
2022-08-05T02:39:00.218Z,21.80
2022-08-05T02:41:28.806Z,21.90
2022-08-05T02:44:13.121Z,21.80
2022-08-05T02:46:59.896Z,21.80
2022-08-05T02:49:36.424Z,21.80
2022-08-05T02:52:09.407Z,21.70
2022-08-05T02:54:41.165Z,21.80
2022-08-05T02:58:10.465Z,21.70
2022-08-05T03:00:00.697Z,21.70
2022-08-05T03:02:36.626Z,21.60
2022-08-05T03:05:04.904Z,21.70
2022-08-05T03:08:01.155Z,21.70
2022-08-05T03:10:24.392Z,21.70
2022-08-05T03:12:52.367Z,21.80
2022-08-05T03:15:23.799Z,21.80
2022-08-05T03:17:55.869Z,21.70
2022-08-05T03:20:24.306Z,21.70
2022-08-05T03:22:51.646Z,21.70
2022-08-05T03:25:33.508Z,21.80
2022-08-05T03:28:08.784Z,21.70
2022-08-05T03:30:35.945Z,21.60
2022-08-05T03:33:05.623Z,21.50
2022-08-05T03:35:33.841Z,21.50
2022-08-05T03:38:07.278Z,21.50
2022-08-05T03:40:34.265Z,21.50
2022-08-05T03:43:58.434Z,21.50
2022-08-05T03:45:57.216Z,21.50
2022-08-05T03:48:27.039Z,21.40
2022-08-05T03:52:37.633Z,21.50
2022-08-05T03:55:51.848Z,21.60
2022-08-05T03:56:58.963Z,21.60
2022-08-05T03:59:46.716Z,21.70
2022-08-05T04:02:38.577Z,21.60
2022-08-05T04:05:13.210Z,21.60
2022-08-05T04:07:57.563Z,21.80
2022-08-05T04:10:27.856Z,21.70
2022-08-05T04:12:56.246Z,21.70
2022-08-05T04:15:33.165Z,21.90
2022-08-05T04:18:09.741Z,21.90
2022-08-05T04:20:41.186Z,22.00
2022-08-05T04:23:12.505Z,22.00
2022-08-05T04:25:57.118Z,22.00
2022-08-05T04:28:30.532Z,22.00
2022-08-05T04:31:00.881Z,21.90
2022-08-05T04:33:54.337Z,21.90
2022-08-05T04:36:45.247Z,21.90
2022-08-05T04:39:02.069Z,21.90
2022-08-05T04:41:37.220Z,22.00
2022-08-05T04:44:09.634Z,22.10
2022-08-05T04:46:37.034Z,22.10
2022-08-05T04:49:03.913Z,22.00
2022-08-05T04:51:31.855Z,22.20
2022-08-05T04:53:59.527Z,22.20
2022-08-05T04:56:35.117Z,22.20
2022-08-05T04:59:21.607Z,22.30
2022-08-05T05:02:35.272Z,22.40
2022-08-05T05:04:38.116Z,22.50
2022-08-05T05:07:05.186Z,22.50
2022-08-05T05:09:37.238Z,22.70
2022-08-05T05:12:05.228Z,22.70
2022-08-05T05:14:32.963Z,22.70
2022-08-05T05:17:03.715Z,22.60
2022-08-05T05:19:36.821Z,22.60
2022-08-05T05:22:22.956Z,22.60
2022-08-05T05:24:56.702Z,22.70
2022-08-05T05:27:44.434Z,22.50
2022-08-05T05:30:30.659Z,22.50
2022-08-05T05:33:03.838Z,22.60
2022-08-05T05:35:42.633Z,22.70
2022-08-05T05:38:13.259Z,22.80
2022-08-05T05:40:49.782Z,22.90
2022-08-05T05:43:27.723Z,22.80
2022-08-05T05:46:10.619Z,22.80
2022-08-05T05:48:43.968Z,23.00
2022-08-05T05:51:15.482Z,22.90
2022-08-05T05:53:54.323Z,22.80
2022-08-05T05:56:32.217Z,22.90
2022-08-05T05:59:05.470Z,23.00
2022-08-05T06:01:39.483Z,23.10
2022-08-05T06:04:11.320Z,23.10
2022-08-05T06:06:41.669Z,23.20
2022-08-05T06:09:09.042Z,23.20
2022-08-05T06:11:58.971Z,23.20
2022-08-05T06:14:27.916Z,23.30
2022-08-05T06:16:55.645Z,23.20
2022-08-05T06:19:33.861Z,23.20
2022-08-05T06:22:03.642Z,23.30
2022-08-05T06:24:30.775Z,23.20
2022-08-05T06:26:57.940Z,23.30
2022-08-05T06:29:48.145Z,23.40
2022-08-05T06:32:26.411Z,23.50
2022-08-05T06:34:57.444Z,23.60
2022-08-05T06:37:56.788Z,23.70
2022-08-05T06:40:20.560Z,23.90
2022-08-05T06:42:51.605Z,24.20
2022-08-05T06:45:20.743Z,24.30
2022-08-05T06:48:36.593Z,24.30
2022-08-05T06:50:34.783Z,24.30
2022-08-05T06:53:11.713Z,24.60
2022-08-05T06:55:48.302Z,24.80
2022-08-05T06:58:29.617Z,25.00
2022-08-05T07:01:01.128Z,25.20
2022-08-05T07:03:32.764Z,25.00
2022-08-05T07:06:05.713Z,25.00
2022-08-05T07:08:47.856Z,25.10
2022-08-05T07:11:22.216Z,25.20
2022-08-05T07:14:08.468Z,25.20
2022-08-05T07:17:57.117Z,25.40
2022-08-05T07:22:28.460Z,25.50
2022-08-05T07:25:23.908Z,25.70
2022-08-05T07:27:57.422Z,26.00
2022-08-05T07:30:33.702Z,26.30
2022-08-05T07:33:05.046Z,26.60
2022-08-05T07:36:04.400Z,26.90
2022-08-05T07:38:34.237Z,27.00
2022-08-05T07:42:07.354Z,27.20
2022-08-05T07:43:56.386Z,27.00
2022-08-05T07:46:26.037Z,27.00
2022-08-05T07:49:01.910Z,27.10
2022-08-05T07:51:41.009Z,27.00
2022-08-05T07:54:22.019Z,26.90
2022-08-05T07:57:02.296Z,26.80
2022-08-05T07:59:40.151Z,26.80
2022-08-05T08:02:15.587Z,26.90
2022-08-05T08:04:47.341Z,27.00
2022-08-05T08:07:17.747Z,27.10
2022-08-05T08:09:44.988Z,27.40
2022-08-05T08:12:35.103Z,27.70
2022-08-05T08:15:02.550Z,27.80
2022-08-05T08:17:30.731Z,27.80
2022-08-05T08:20:22.414Z,27.70
2022-08-05T08:22:43.968Z,27.60
2022-08-05T08:25:16.427Z,27.40
2022-08-05T08:27:47.507Z,27.30
2022-08-05T08:30:27.631Z,27.40
2022-08-05T08:33:04.368Z,27.60
2022-08-05T08:35:34.858Z,27.90
2022-08-05T08:38:07.422Z,28.00
2022-08-05T08:40:35.191Z,28.20
2022-08-05T08:45:20.002Z,27.90
2022-08-05T08:45:54.131Z,27.90
2022-08-05T08:48:41.650Z,28.00
2022-08-05T08:51:23.252Z,27.80
2022-08-05T08:53:55.352Z,27.30
2022-08-05T08:56:23.616Z,27.50
2022-08-05T08:58:54.428Z,27.80
2022-08-05T09:01:21.175Z,27.70
2022-08-05T09:03:57.252Z,27.90
2022-08-05T09:06:30.212Z,27.80
2022-08-05T09:09:01.651Z,28.00
2022-08-05T09:11:51.783Z,28.10
2022-08-05T09:14:56.509Z,28.40
2022-08-05T09:17:04.546Z,28.70
2022-08-05T09:19:36.711Z,28.60
2022-08-05T09:22:31.063Z,28.50
2022-08-05T09:25:00.290Z,28.00
2022-08-05T09:28:04.126Z,27.70
2022-08-05T09:30:23.447Z,27.50
2022-08-05T09:32:51.747Z,27.20
2022-08-05T09:35:26.612Z,26.80
2022-08-05T09:38:12.237Z,26.80
2022-08-05T09:40:52.039Z,26.70
2022-08-05T09:43:40.549Z,27.00
2022-08-05T09:46:32.794Z,27.40
2022-08-05T09:49:19.603Z,27.60
2022-08-05T09:51:49.443Z,27.80
2022-08-05T09:54:21.385Z,27.70
2022-08-05T09:56:57.602Z,27.90
2022-08-05T09:59:28.080Z,27.90
2022-08-05T10:01:58.258Z,28.00
2022-08-05T10:04:35.706Z,27.90
2022-08-05T10:07:20.423Z,28.00
2022-08-05T10:10:04.183Z,28.10
2022-08-05T10:12:50.778Z,27.80
2022-08-05T10:15:29.718Z,28.00
2022-08-05T10:18:22.185Z,28.20
2022-08-05T10:20:51.594Z,28.60
2022-08-05T10:23:55.567Z,28.10
2022-08-05T10:26:14.253Z,28.00
2022-08-05T10:28:43.547Z,27.90
2022-08-05T10:32:48.228Z,28.00
2022-08-05T10:34:01.399Z,28.20
2022-08-05T10:36:28.545Z,28.50
2022-08-05T10:39:10.033Z,28.30
2022-08-05T10:41:59.104Z,27.80
2022-08-05T10:44:29.223Z,27.80
2022-08-05T10:46:56.783Z,28.00
2022-08-05T10:49:26.810Z,27.90
2022-08-05T10:52:02.476Z,27.70
2022-08-05T10:55:03.866Z,27.30
2022-08-05T10:57:32.300Z,27.10
2022-08-05T11:00:24.247Z,27.10
2022-08-05T11:03:23.448Z,27.10
2022-08-05T11:06:15.631Z,27.50
2022-08-05T11:09:13.198Z,27.30
2022-08-05T11:11:53.699Z,27.50
2022-08-05T11:14:56.363Z,27.60
2022-08-05T11:17:59.587Z,27.50
2022-08-05T11:20:44.139Z,27.80
2022-08-05T11:24:03.229Z,28.20
2022-08-05T11:26:32.405Z,28.70
2022-08-05T11:29:12.880Z,29.10
2022-08-05T11:31:58.907Z,29.40
2022-08-05T11:34:51.168Z,29.50
2022-08-05T11:38:26.587Z,30.00
2022-08-05T11:41:12.960Z,30.30
2022-08-05T11:44:00.961Z,30.60
2022-08-05T11:47:10.537Z,30.20
2022-08-05T11:49:43.033Z,30.60
2022-08-05T11:52:11.351Z,30.90
2022-08-05T11:54:40.646Z,31.10
2022-08-05T11:57:25.040Z,31.40
2022-08-05T11:59:52.657Z,31.50
2022-08-05T12:02:30.068Z,31.40
2022-08-05T12:05:00.616Z,31.20
2022-08-05T12:08:07.485Z,31.20
2022-08-05T12:10:22.993Z,30.90
2022-08-05T12:12:58.460Z,30.70
2022-08-05T12:15:38.600Z,30.50
2022-08-05T12:18:10.525Z,30.20
2022-08-05T12:20:39.116Z,29.90
2022-08-05T12:23:12.796Z,29.70
2022-08-05T12:25:53.808Z,29.50
2022-08-05T12:28:39.147Z,29.70
2022-08-05T12:31:05.939Z,29.90
2022-08-05T12:33:36.722Z,30.50
2022-08-05T12:36:08.398Z,30.40
2022-08-05T12:38:40.275Z,29.80
2022-08-05T12:41:13.423Z,29.60
2022-08-05T12:43:54.235Z,29.50
2022-08-05T12:46:29.131Z,29.90
2022-08-05T12:49:01.034Z,29.70
2022-08-05T12:52:11.175Z,29.20
2022-08-05T12:54:31.667Z,29.10
2022-08-05T12:57:02.815Z,28.70
2022-08-05T13:00:08.935Z,28.50
2022-08-05T13:02:30.276Z,28.30
2022-08-05T13:04:57.079Z,27.80
2022-08-05T13:07:57.123Z,27.70
2022-08-05T13:10:20.132Z,27.80
2022-08-05T13:12:51.295Z,27.80
2022-08-05T13:15:41.709Z,28.10
2022-08-05T13:18:19.426Z,28.00
2022-08-05T13:20:47.347Z,27.80
2022-08-05T13:23:22.051Z,27.60
2022-08-05T13:25:52.649Z,27.50
2022-08-05T13:28:25.831Z,27.10
2022-08-05T13:30:53.175Z,26.60
2022-08-05T13:34:22.809Z,25.80
2022-08-05T13:36:10.368Z,24.90
2022-08-05T13:38:42.191Z,23.90
2022-08-05T13:41:12.859Z,23.30
2022-08-05T13:43:44.271Z,23.10
2022-08-05T13:46:12.768Z,23.00
2022-08-05T13:48:57.827Z,23.20
2022-08-05T13:51:36.622Z,23.30
2022-08-05T13:54:11.872Z,23.60
2022-08-05T13:56:45.318Z,23.90
2022-08-05T13:59:20.087Z,23.90
2022-08-05T14:01:56.456Z,23.90
2022-08-05T14:04:42.262Z,23.90
2022-08-05T14:07:26.423Z,24.00
2022-08-05T14:09:56.042Z,24.10
2022-08-05T14:12:32.565Z,24.50
2022-08-05T14:14:59.609Z,24.80
2022-08-05T14:17:26.626Z,24.70
2022-08-05T14:19:59.655Z,24.50
2022-08-05T14:22:30.439Z,24.30
2022-08-05T14:24:57.262Z,23.90
2022-08-05T14:27:23.867Z,23.80
2022-08-05T14:29:55.118Z,23.50
2022-08-05T14:32:26.795Z,23.50
2022-08-05T14:34:54.733Z,23.20
2022-08-05T14:37:45.514Z,23.00
2022-08-05T14:40:14.146Z,23.00
2022-08-05T14:42:43.325Z,23.00
2022-08-05T14:45:10.353Z,22.80
2022-08-05T14:48:03.644Z,22.70
2022-08-05T14:50:25.314Z,22.60
2022-08-05T14:52:57.679Z,22.70
2022-08-05T14:55:38.434Z,22.90
2022-08-05T14:58:11.666Z,23.20
2022-08-05T15:00:39.384Z,23.50
2022-08-05T15:03:26.208Z,23.10
2022-08-05T15:06:07.642Z,23.00
2022-08-05T15:08:59.047Z,22.90
2022-08-05T15:11:52.903Z,23.00
2022-08-05T15:14:20.272Z,23.10
2022-08-05T15:16:59.402Z,23.10
2022-08-05T15:19:26.264Z,23.00
2022-08-05T15:21:53.230Z,23.00
2022-08-05T15:24:24.623Z,22.90
2022-08-05T15:26:51.324Z,22.90
2022-08-05T15:29:17.912Z,23.00
2022-08-05T15:31:49.742Z,22.90
2022-08-05T15:34:33.243Z,22.90
2022-08-05T15:37:06.484Z,23.10
2022-08-05T15:40:59.392Z,22.90
2022-08-05T15:42:54.208Z,23.00
2022-08-05T15:45:14.648Z,23.20
2022-08-05T15:47:42.723Z,23.40
2022-08-05T15:50:15.977Z,23.50
2022-08-05T15:52:53.178Z,23.80
2022-08-05T15:55:25.186Z,23.80
2022-08-05T15:58:09.222Z,23.90
2022-08-05T16:01:03.577Z,24.00
2022-08-05T16:03:29.823Z,24.20
2022-08-05T16:05:59.329Z,24.00
2022-08-05T16:08:30.443Z,23.90
2022-08-05T16:10:58.011Z,24.00
2022-08-05T16:13:34.229Z,24.20
2022-08-05T16:16:05.095Z,23.90
2022-08-05T16:18:34.795Z,23.80
2022-08-05T16:21:18.530Z,23.70
2022-08-05T16:23:54.484Z,23.50
2022-08-05T16:26:26.559Z,23.40
2022-08-05T16:28:54.366Z,23.40
2022-08-05T16:31:21.393Z,23.40
2022-08-05T16:33:48.579Z,23.30
2022-08-05T16:36:20.519Z,23.30
2022-08-05T16:38:54.883Z,23.30
2022-08-05T16:42:14.901Z,23.40
2022-08-05T16:44:10.802Z,23.50
2022-08-05T16:46:41.209Z,23.70
2022-08-05T16:49:10.049Z,23.60
2022-08-05T16:51:42.659Z,23.70
2022-08-05T16:54:23.947Z,23.70
2022-08-05T16:56:54.167Z,23.80
2022-08-05T16:59:20.793Z,23.80
2022-08-05T17:01:54.348Z,23.90
2022-08-05T17:04:23.792Z,23.90
2022-08-05T17:06:54.130Z,24.00
2022-08-05T17:09:21.195Z,24.00
2022-08-05T17:11:51.565Z,23.90
2022-08-05T17:14:22.296Z,23.90
2022-08-05T17:17:01.171Z,23.90
2022-08-05T17:19:29.293Z,24.10
2022-08-05T17:21:57.312Z,24.00
2022-08-05T17:24:35.183Z,24.10
2022-08-05T17:27:05.688Z,24.20
2022-08-05T17:29:33.646Z,24.50
2022-08-05T17:32:11.346Z,24.60
2022-08-05T17:34:43.124Z,24.70
2022-08-05T17:37:35.954Z,24.80
2022-08-05T17:39:56.482Z,24.80
2022-08-05T17:42:32.142Z,24.80
2022-08-05T17:45:08.070Z,24.80
2022-08-05T17:47:45.759Z,24.50
2022-08-05T17:50:27.691Z,24.10
2022-08-05T17:52:58.791Z,23.90
2022-08-05T17:55:27.205Z,23.80
2022-08-05T17:57:54.432Z,23.60
2022-08-05T18:00:21.041Z,23.50
2022-08-05T18:02:55.184Z,23.60
2022-08-05T18:05:22.059Z,23.50
2022-08-05T18:07:48.726Z,23.60
2022-08-05T18:10:21.136Z,23.40
2022-08-05T18:12:49.251Z,23.40
2022-08-05T18:15:16.118Z,23.20
2022-08-05T18:17:59.644Z,23.10
2022-08-05T18:20:32.129Z,23.00
2022-08-05T18:23:11.393Z,22.90
2022-08-05T18:25:45.611Z,22.80
2022-08-05T18:28:16.381Z,22.80
2022-08-05T18:30:45.041Z,22.70
2022-08-05T18:33:13.830Z,22.70
2022-08-05T18:36:01.031Z,22.70
2022-08-05T18:38:28.181Z,22.60
2022-08-05T18:41:55.681Z,22.60
2022-08-05T18:43:42.949Z,22.50
2022-08-05T18:46:15.103Z,22.40
2022-08-05T18:48:42.114Z,22.40
2022-08-05T18:52:05.768Z,22.30
2022-08-05T18:54:14.758Z,22.20
2022-08-05T18:56:41.893Z,22.10
2022-08-05T18:59:43.728Z,22.10
2022-08-05T19:02:04.754Z,22.00
2022-08-05T19:05:01.382Z,21.90
2022-08-05T19:07:25.299Z,21.80
2022-08-05T19:09:56.908Z,21.80
2022-08-05T19:12:24.072Z,21.80
2022-08-05T19:15:00.924Z,21.70
2022-08-05T19:17:59.210Z,21.60
2022-08-05T19:20:15.986Z,21.60
2022-08-05T19:22:44.440Z,21.50
2022-08-05T19:25:11.342Z,21.50
2022-08-05T19:27:48.734Z,21.40
2022-08-05T19:30:20.514Z,21.40
2022-08-05T19:32:47.520Z,21.30
2022-08-05T19:35:14.397Z,21.30
2022-08-05T19:38:04.453Z,21.20
2022-08-05T19:40:28.887Z,21.20
2022-08-05T19:43:04.707Z,21.10
2022-08-05T19:45:33.360Z,21.00
2022-08-05T19:48:04.163Z,21.00
2022-08-05T19:50:32.076Z,20.90
2022-08-05T19:52:58.699Z,20.90
2022-08-05T19:56:14.308Z,20.80
2022-08-05T19:58:29.653Z,20.80
2022-08-05T20:00:56.651Z,20.90
2022-08-05T20:03:25.365Z,20.90
2022-08-05T20:05:56.373Z,20.80
2022-08-05T20:08:24.376Z,20.80
2022-08-05T20:10:52.182Z,20.80
2022-08-05T20:13:29.796Z,20.70
2022-08-05T20:15:57.796Z,20.60
2022-08-05T20:18:35.929Z,20.60
2022-08-05T20:21:05.169Z,20.50
2022-08-05T20:23:39.552Z,20.50
2022-08-05T20:26:19.805Z,20.50
2022-08-05T20:28:51.405Z,20.40
2022-08-05T20:31:28.438Z,20.40
2022-08-05T20:34:08.504Z,20.40
2022-08-05T20:36:35.210Z,20.40
2022-08-05T20:39:05.778Z,20.30
2022-08-05T20:41:44.515Z,20.30
2022-08-05T20:44:17.483Z,20.20
2022-08-05T20:46:46.817Z,20.20
2022-08-05T20:49:13.911Z,20.10
2022-08-05T20:51:40.578Z,20.00
2022-08-05T20:54:07.243Z,20.00
2022-08-05T20:56:42.404Z,20.00
2022-08-05T20:59:14.102Z,19.90
2022-08-05T21:01:45.732Z,19.90
2022-08-05T21:04:12.431Z,19.90
2022-08-05T21:06:45.506Z,19.70
2022-08-05T21:09:14.269Z,19.70
2022-08-05T21:12:07.480Z,19.70
2022-08-05T21:14:29.276Z,19.70
2022-08-05T21:17:01.617Z,19.60
2022-08-05T21:19:29.685Z,19.60
2022-08-05T21:22:15.358Z,19.50
2022-08-05T21:24:45.268Z,19.50
2022-08-05T21:27:16.183Z,19.40
2022-08-05T21:29:43.226Z,19.40
2022-08-05T21:32:17.177Z,19.30
2022-08-05T21:35:08.184Z,19.20
2022-08-05T21:37:33.442Z,19.20
2022-08-05T21:40:05.756Z,19.10
2022-08-05T21:42:44.732Z,19.00
2022-08-05T21:45:12.045Z,18.90
2022-08-05T21:47:56.456Z,18.90
2022-08-05T21:50:26.263Z,18.90
2022-08-05T21:52:53.424Z,18.90
2022-08-05T21:56:01.780Z,18.80
2022-08-05T21:58:07.138Z,18.70
2022-08-05T22:00:37.279Z,18.50
2022-08-05T22:03:03.982Z,18.50
2022-08-05T22:05:48.860Z,18.40
2022-08-05T22:08:22.168Z,18.30
2022-08-05T22:10:50.975Z,18.30
2022-08-05T22:14:33.979Z,18.30
2022-08-05T22:16:15.633Z,18.20
2022-08-05T22:18:49.214Z,18.00
2022-08-05T22:21:18.732Z,17.90
2022-08-05T22:24:09.112Z,17.80
2022-08-05T22:26:58.266Z,17.70
2022-08-05T22:29:26.172Z,17.60
2022-08-05T22:31:55.305Z,17.50
2022-08-05T22:34:28.830Z,17.40
2022-08-05T22:36:58.402Z,17.30
2022-08-05T22:39:30.994Z,17.30
2022-08-05T22:42:09.591Z,17.30
2022-08-05T22:44:39.976Z,17.40
2022-08-05T22:47:06.914Z,17.30
2022-08-05T22:50:21.695Z,17.20
2022-08-05T22:52:30.619Z,17.20
2022-08-05T22:55:01.630Z,17.10
2022-08-05T22:57:36.202Z,17.00
2022-08-05T23:00:08.071Z,17.00
2022-08-05T23:02:46.500Z,17.00
2022-08-05T23:05:15.126Z,17.20
2022-08-05T23:07:48.450Z,17.20
2022-08-05T23:10:20.075Z,17.30
2022-08-05T23:12:51.506Z,17.40
2022-08-05T23:15:21.316Z,17.60
2022-08-05T23:18:01.531Z,17.60
2022-08-05T23:20:30.323Z,17.60
2022-08-05T23:22:58.597Z,17.50
2022-08-05T23:25:51.215Z,17.30
2022-08-05T23:28:13.186Z,17.40
2022-08-05T23:30:43.739Z,17.50
2022-08-05T23:33:16.502Z,17.50
2022-08-05T23:35:50.350Z,17.70
2022-08-05T23:38:17.233Z,17.60
2022-08-05T23:40:50.136Z,17.60
2022-08-05T23:43:25.320Z,17.70
2022-08-05T23:46:04.862Z,17.90
2022-08-05T23:48:47.382Z,17.90
2022-08-05T23:51:54.238Z,18.00
2022-08-05T23:54:30.294Z,17.90
2022-08-05T23:57:04.718Z,17.70
